Time;durP1;ratioP1;P1;durP2;ratioP2;P2;SDS_P1;SDS_P2;PMS_P1;PMS_P2;Temp;Humidity;BMP_temperature;BMP_pressure;BME280_temperature;BME280_humidity;BME280_pressure;Samples;Min_cycle;Max_cycle;Signal;HPM_P1;HPM_P2
2022/01/18 00:01:38;;;;;;;;;1.00;1.00;;;;;2.12;68.35;100333.50;5037546;28;9765;-76
2022/01/18 00:04:08;;;;;;;;;0.00;0.00;;;;;2.14;68.66;100336.16;5068519;28;8959;-74
2022/01/18 00:06:40;;;;;;;;;1.40;0.40;;;;;2.07;68.73;100341.81;5052118;28;8840;-74
2022/01/18 00:09:09;;;;;;;;;2.20;0.00;;;;;2.23;67.73;100354.59;5051006;28;8871;-75
2022/01/18 00:11:45;;;;;;;;;0.00;0.00;;;;;2.15;67.87;100361.06;5069639;28;8852;-74
2022/01/18 00:14:24;;;;;;;;;1.20;0.00;;;;;2.08;67.97;100372.75;5052108;28;8848;-73
2022/01/18 00:17:04;;;;;;;;;0.00;0.00;;;;;2.16;67.76;100390.25;5068604;28;8868;-73
2022/01/18 00:19:39;;;;;;;;;0.00;0.00;;;;;2.13;67.83;100389.28;5067261;28;8852;-74
2022/01/18 00:22:12;;;;;;;;;1.00;0.60;;;;;2.15;68.02;100402.22;5068479;28;8844;-74
2022/01/18 00:24:42;;;;;;;;;0.00;0.00;;;;;1.95;69.06;100403.88;5050665;28;8840;-74
2022/01/18 00:27:14;;;;;;;;;0.00;0.00;;;;;1.87;69.43;100415.44;5051755;28;8971;-75
2022/01/18 00:29:51;;;;;;;;;0.00;0.00;;;;;1.80;69.93;100414.28;5059724;28;8848;-75
2022/01/18 00:32:31;;;;;;;;;0.40;0.40;;;;;1.87;69.92;100434.34;5067965;28;8848;-74
2022/01/18 00:35:00;;;;;;;;;1.20;1.00;;;;;1.75;70.43;100428.59;5068162;28;8816;-77
2022/01/18 00:37:35;;;;;;;;;1.40;1.40;;;;;1.72;70.45;100426.78;5055803;28;8854;-75
2022/01/18 00:40:05;;;;;;;;;1.00;1.00;;;;;1.72;70.77;100413.91;5030672;28;8859;-74
2022/01/18 00:42:34;;;;;;;;;0.00;0.00;;;;;1.64;70.69;100437.47;5049602;28;9668;-74
2022/01/18 00:45:04;;;;;;;;;1.00;0.00;;;;;1.60;71.56;100441.56;5049152;28;8842;-76
2022/01/18 00:47:34;;;;;;;;;0.00;0.00;;;;;1.59;71.51;100447.53;5047588;28;8857;-76
2022/01/18 00:50:03;;;;;;;;;1.40;0.40;;;;;1.54;71.69;100454.13;5058961;28;9645;-75
2022/01/18 00:52:38;;;;;;;;;0.00;0.00;;;;;1.61;71.61;100457.88;5084793;28;8840;-77
2022/01/18 00:55:08;;;;;;;;;2.20;1.00;;;;;1.62;71.87;100459.66;5068645;28;8868;-75
2022/01/18 00:57:37;;;;;;;;;1.00;1.00;;;;;1.52;72.61;100466.03;5057426;28;8846;-75
2022/01/18 01:00:07;;;;;;;;;1.00;1.00;;;;;1.53;72.59;100471.25;5031170;28;8843;-75
2022/01/18 01:02:37;;;;;;;;;0.20;0.20;;;;;1.45;73.44;100471.66;5031041;28;9000;-75
2022/01/18 01:05:07;;;;;;;;;1.00;0.20;;;;;1.37;73.94;100468.69;5017294;28;8832;-75
2022/01/18 01:07:37;;;;;;;;;0.80;0.80;;;;;1.44;73.36;100469.91;5068782;28;8855;-75
2022/01/18 01:10:26;;;;;;;;;0.00;0.00;;;;;1.25;74.26;100468.94;5050538;28;8863;-75
2022/01/18 01:12:57;;;;;;;;;0.80;0.80;;;;;1.23;74.58;100467.09;5050745;28;8974;-76
2022/01/18 01:15:28;;;;;;;;;1.00;0.40;;;;;1.19;75.11;100467.75;5067132;28;8847;-75
2022/01/18 01:18:13;;;;;;;;;0.20;0.20;;;;;1.21;74.67;100478.97;5050553;28;8877;-75
2022/01/18 01:35:04;;;;;;;;;1.40;1.00;;;;;1.04;74.94;100504.69;4970157;28;8842;-75
2022/01/18 01:43:19;;;;;;;;;1.00;1.00;;;;;0.95;74.67;100504.19;4954415;28;9732;-75
2022/01/18 01:45:49;;;;;;;;;4.40;1.20;;;;;0.97;75.12;100523.13;4954159;28;8846;-76
2022/01/18 01:48:19;;;;;;;;;1.00;1.00;;;;;0.97;74.91;100524.00;4969993;28;8916;-75
2022/01/18 01:50:53;;;;;;;;;2.20;0.20;;;;;0.85;74.94;100523.34;4954053;28;8859;-76
2022/01/18 01:53:24;;;;;;;;;1.40;1.40;;;;;0.86;74.52;100519.97;4954414;28;8854;-75
2022/01/18 01:55:54;;;;;;;;;1.00;1.00;;;;;0.83;73.91;100516.34;4922216;28;8921;-75
2022/01/18 01:58:25;;;;;;;;;1.00;1.00;;;;;0.84;73.79;100530.97;4953624;28;9180;-74
2022/01/18 02:00:57;;;;;;;;;0.00;0.00;;;;;0.76;73.30;100538.25;4922381;28;8846;-76
2022/01/18 02:03:26;;;;;;;;;1.00;1.00;;;;;0.77;73.40;100535.75;4982197;28;8850;-76
2022/01/18 02:05:57;;;;;;;;;2.60;2.60;;;;;0.73;73.03;100530.38;5009033;28;9063;-75
2022/01/18 02:08:26;;;;;;;;;1.40;0.40;;;;;0.70;72.79;100546.50;4992302;28;8969;-74
2022/01/18 02:10:54;;;;;;;;;0.80;0.80;;;;;0.73;72.39;100551.78;5034660;28;8840;-75
2022/01/18 02:13:23;;;;;;;;;0.60;0.60;;;;;0.73;72.53;100549.22;5066721;28;8844;-76
2022/01/18 02:16:13;;;;;;;;;0.40;0.40;;;;;0.72;71.86;100560.31;5067701;28;8867;-76
2022/01/18 02:21:48;;;;;;;;;0.80;0.80;;;;;0.77;71.68;100570.81;5066336;28;8999;-75
2022/01/18 02:24:19;;;;;;;;;3.00;0.80;;;;;0.76;71.47;100562.22;5028318;28;9588;-75
2022/01/18 02:26:47;;;;;;;;;3.80;1.80;;;;;0.99;70.99;100574.56;4993053;28;10076;-75
2022/01/18 02:29:17;;;;;;;;;2.20;2.20;;;;;1.29;70.19;100571.06;5027716;28;9620;-75
2022/01/18 02:31:45;;;;;;;;;0.60;0.60;;;;;1.46;69.72;100566.81;5029301;28;8861;-75
2022/01/18 02:34:17;;;;;;;;;1.20;0.80;;;;;1.62;69.45;100570.19;5012430;28;8869;-74
2022/01/18 02:36:47;;;;;;;;;1.00;1.00;;;;;1.71;68.77;100562.97;4980273;28;8868;-75
2022/01/18 02:39:20;;;;;;;;;1.40;1.40;;;;;1.66;68.35;100569.53;4996400;28;9580;-75
2022/01/18 02:41:54;;;;;;;;;0.60;0.60;;;;;1.75;68.38;100580.31;5012670;28;8935;-75
2022/01/18 02:44:24;;;;;;;;;1.40;0.60;;;;;2.00;67.22;100577.28;5028904;28;8853;-75
2022/01/18 02:46:54;;;;;;;;;1.40;1.00;;;;;1.88;67.40;100582.69;5023704;28;8853;-75
2022/01/18 02:49:22;;;;;;;;;1.00;1.00;;;;;1.71;67.86;100592.13;5028802;28;8846;-74
2022/01/18 02:51:52;;;;;;;;;1.60;1.00;;;;;1.90;67.18;100596.50;5011907;28;8858;-74
2022/01/18 02:54:22;;;;;;;;;1.00;1.00;;;;;1.64;67.04;100610.59;4995701;28;9011;-75
2022/01/18 02:56:54;;;;;;;;;1.00;1.00;;;;;1.84;67.25;100619.34;5033052;28;8850;-75
2022/01/18 02:59:30;;;;;;;;;2.20;1.00;;;;;1.55;67.37;100620.38;5065365;28;9631;-75
2022/01/18 03:04:48;;;;;;;;;0.40;0.00;;;;;1.47;67.75;100622.56;5069040;28;9651;-76
2022/01/18 03:07:18;;;;;;;;;0.80;0.80;;;;;1.29;68.61;100624.16;5051960;28;8860;-75
2022/01/18 03:09:47;;;;;;;;;0.80;0.80;;;;;1.13;68.96;100623.28;5069210;28;8960;-75
2022/01/18 03:12:16;;;;;;;;;1.00;1.00;;;;;1.01;69.53;100634.59;5051900;28;8872;-75
2022/01/18 03:14:45;;;;;;;;;1.00;1.00;;;;;0.92;69.26;100628.13;5069397;28;8871;-75
2022/01/18 03:17:14;;;;;;;;;1.80;1.80;;;;;0.83;69.83;100635.31;5031447;28;8840;-75
2022/01/18 03:19:43;;;;;;;;;1.00;0.40;;;;;0.84;70.04;100641.38;5031819;28;8820;-74
2022/01/18 03:22:12;;;;;;;;;1.00;1.00;;;;;0.76;70.63;100644.38;5015055;28;8886;-75
2022/01/18 03:24:49;;;;;;;;;1.00;1.00;;;;;0.69;70.75;100641.38;5048315;28;9475;-76
2022/01/18 03:30:09;;;;;;;;;1.00;1.00;;;;;0.58;71.03;100645.91;5031827;28;8985;-75
2022/01/18 03:32:38;;;;;;;;;1.60;1.40;;;;;0.48;71.72;100646.19;5011503;28;8862;-75
2022/01/18 03:35:10;;;;;;;;;2.80;1.80;;;;;0.49;71.64;100650.50;4995180;28;8842;-76
2022/01/18 03:37:39;;;;;;;;;1.80;0.40;;;;;0.49;71.98;100645.38;5011791;28;9035;-77
2022/01/18 03:40:11;;;;;;;;;4.20;2.60;;;;;0.52;71.89;100661.81;5027689;28;8936;-75
2022/01/18 03:42:42;;;;;;;;;1.00;1.00;;;;;0.54;71.69;100667.06;5027593;28;9111;-76
2022/01/18 03:45:14;;;;;;;;;3.60;1.00;;;;;0.47;72.11;100667.50;5011218;28;8854;-75
2022/01/18 03:47:44;;;;;;;;;0.60;0.60;;;;;0.46;71.97;100669.19;5011536;28;8862;-75
2022/01/18 03:50:16;;;;;;;;;0.00;0.00;;;;;0.37;72.37;100672.09;5011258;28;8846;-74
2022/01/18 03:52:46;;;;;;;;;0.60;0.20;;;;;0.37;72.53;100671.22;5011279;28;8909;-74
2022/01/18 03:55:19;;;;;;;;;0.20;0.20;;;;;0.39;72.59;100674.75;5028434;28;8845;-75
2022/01/18 03:57:48;;;;;;;;;0.20;0.20;;;;;0.36;72.62;100664.31;5035990;28;8883;-74
2022/01/18 04:00:20;;;;;;;;;0.80;0.80;;;;;0.33;72.77;100667.56;5067714;28;10107;-75
2022/01/18 04:02:51;;;;;;;;;0.60;0.60;;;;;0.38;72.55;100671.31;5006977;28;8922;-75
2022/01/18 04:05:20;;;;;;;;;2.60;2.60;;;;;0.34;72.68;100673.59;5055654;28;8975;-75
2022/01/18 04:07:50;;;;;;;;;1.40;1.00;;;;;0.33;72.81;100671.81;5052956;28;8860;-76
2022/01/18 04:10:20;;;;;;;;;1.00;1.00;;;;;0.34;72.56;100679.63;5070416;28;8994;-75
2022/01/18 04:12:49;;;;;;;;;0.00;0.00;;;;;0.32;72.59;100680.31;5052490;28;8895;-74
2022/01/18 04:15:18;;;;;;;;;3.40;2.60;;;;;0.33;72.33;100680.41;5052203;28;8868;-76
2022/01/18 04:18:07;;;;;;;;;1.00;1.00;;;;;0.34;71.92;100697.56;5069290;28;8930;-76
2022/01/18 04:28:52;;;;;;;;;1.00;1.00;;;;;0.49;70.93;100704.38;5030803;28;9747;-76
2022/01/18 04:31:22;;;;;;;;;6.80;1.00;;;;;0.63;70.86;100707.78;5047186;28;8869;-75
2022/01/18 04:33:51;;;;;;;;;1.00;0.60;;;;;0.69;70.47;100710.69;5010107;28;8830;-74
2022/01/18 04:36:19;;;;;;;;;1.80;1.80;;;;;0.54;70.59;100719.25;5011300;28;8969;-75
2022/01/18 04:38:48;;;;;;;;;3.00;1.00;;;;;0.86;69.43;100721.94;5030026;28;8842;-77
2022/01/18 04:41:24;;;;;;;;;1.00;0.00;;;;;1.09;68.92;100721.53;5047626;28;8942;-74
2022/01/18 04:44:10;;;;;;;;;3.00;2.20;;;;;1.38;67.78;100726.53;5048196;28;8855;-75
2022/01/18 04:49:24;;;;;;;;;2.00;1.80;;;;;1.70;65.98;100726.63;5049268;28;8850;-75
2022/01/18 04:51:53;;;;;;;;;6.40;4.40;;;;;1.60;66.37;100719.22;5014512;28;8843;-76
2022/01/18 04:54:28;;;;;;;;;4.40;3.00;;;;;1.37;67.24;100723.09;5045882;28;9006;-75
2022/01/18 04:59:45;;;;;;;;;2.20;1.40;;;;;0.90;68.86;100744.41;5039707;28;8957;-75
2022/01/18 05:02:14;;;;;;;;;0.60;0.60;;;;;0.64;70.22;100735.19;5085169;28;8843;-76
2022/01/18 05:04:43;;;;;;;;;1.00;1.00;;;;;0.44;71.00;100731.47;5068917;28;8905;-76
2022/01/18 05:07:14;;;;;;;;;3.80;2.20;;;;;0.28;71.48;100740.81;5068333;28;8886;-75
2022/01/18 05:09:45;;;;;;;;;1.40;1.40;;;;;0.11;72.77;100732.09;5067879;28;9577;-76
2022/01/18 05:12:23;;;;;;;;;0.80;0.80;;;;;0.11;72.48;100718.38;5051923;28;8848;-74
2022/01/18 05:14:53;;;;;;;;;6.00;3.80;;;;;0.08;72.97;100723.34;5068777;28;8836;-76
2022/01/18 05:17:39;;;;;;;;;5.60;1.00;;;;;0.07;72.13;100748.09;5068153;28;8839;-76
2022/01/18 05:20:44;;;;;;;;;3.40;2.20;;;;;0.13;72.16;100755.28;5050832;28;8859;-75
2022/01/18 05:23:12;;;;;;;;;3.00;1.40;;;;;0.12;72.24;100750.94;5050381;28;8882;-74
2022/01/18 05:25:40;;;;;;;;;1.00;1.00;;;;;0.21;71.65;100766.91;5058419;28;9558;-75
2022/01/18 05:28:10;;;;;;;;;4.80;3.40;;;;;0.38;70.69;100765.34;5012937;28;9000;-74
2022/01/18 05:30:39;;;;;;;;;2.20;2.20;;;;;0.66;69.90;100767.88;5065120;28;9014;-74
2022/01/18 05:33:10;;;;;;;;;3.00;1.80;;;;;0.86;68.48;100773.28;5050680;28;8855;-76
2022/01/18 05:35:39;;;;;;;;;7.20;5.20;;;;;1.07;67.75;100774.50;5047357;28;8870;-75
2022/01/18 05:38:08;;;;;;;;;12.60;11.20;;;;;1.10;67.16;100771.25;5030507;28;8850;-75
2022/01/18 05:40:37;;;;;;;;;11.00;11.00;;;;;1.40;66.21;100768.63;5049747;28;8874;-77
2022/01/18 05:43:06;;;;;;;;;8.80;6.40;;;;;1.58;66.12;100773.91;5068147;28;8859;-75
2022/01/18 05:45:37;;;;;;;;;10.00;8.60;;;;;1.72;65.35;100778.13;5045180;28;8846;-76
2022/01/18 05:48:06;;;;;;;;;10.00;6.80;;;;;1.92;64.95;100774.06;5044778;28;8986;-77
2022/01/18 05:50:35;;;;;;;;;10.00;9.40;;;;;2.06;64.43;100774.81;5010926;28;8857;-75
2022/01/18 05:53:04;;;;;;;;;6.60;6.60;;;;;2.20;64.10;100783.28;5028519;28;8854;-76
2022/01/18 05:55:34;;;;;;;;;7.60;7.60;;;;;2.25;63.74;100781.81;5008619;28;9742;-76
2022/01/18 05:58:03;;;;;;;;;34.00;28.25;;;;;1.91;64.12;100787.72;4992362;28;8926;-74
2022/01/18 06:00:31;;;;;;;;;26.75;24.75;;;;;2.10;63.88;100790.50;4976349;28;8910;-76
2022/01/18 06:03:11;;;;;;;;;14.40;11.60;;;;;1.25;66.43;100787.53;4960522;28;8891;-75
2022/01/18 06:08:27;;;;;;;;;6.80;6.80;;;;;0.37;69.75;100784.09;5025188;28;8828;-77
2022/01/18 06:10:56;;;;;;;;;10.80;5.60;;;;;0.16;70.25;100788.81;5008074;28;8884;-74
2022/01/18 06:13:24;;;;;;;;;8.20;6.00;;;;;0.11;70.24;100780.81;5024993;28;8899;-76
2022/01/18 06:15:53;;;;;;;;;7.40;6.60;;;;;0.11;70.47;100785.94;4996887;28;8856;-75
2022/01/18 06:18:23;;;;;;;;;3.40;1.00;;;;;0.23;69.54;100795.19;5064229;28;8960;-75
2022/01/18 06:20:53;;;;;;;;;4.20;3.40;;;;;0.60;68.95;100795.72;5064566;28;8988;-76
2022/01/18 06:23:23;;;;;;;;;7.40;4.00;;;;;0.91;67.45;100806.13;5015735;28;8948;-79
2022/01/18 06:25:51;;;;;;;;;4.40;4.40;;;;;1.10;66.70;100799.50;4982840;28;8847;-77
2022/01/18 06:28:21;;;;;;;;;6.80;6.00;;;;;1.35;65.79;100800.09;5065775;28;8859;-74
2022/01/18 06:30:50;;;;;;;;;8.60;6.80;;;;;1.60;65.09;100805.72;5065906;28;8860;-76
2022/01/18 06:33:19;;;;;;;;;9.00;8.60;;;;;1.81;64.60;100806.91;5066073;28;9011;-77
2022/01/18 06:35:49;;;;;;;;;11.60;11.20;;;;;1.97;64.03;100806.09;5066334;28;8943;-76
2022/01/18 06:38:18;;;;;;;;;15.50;13.00;;;;;2.13;63.71;100805.22;5066308;28;9005;-78
2022/01/18 06:40:49;;;;;;;;;17.00;14.60;;;;;2.26;63.51;100799.91;5015228;28;8847;-78
2022/01/18 06:43:18;;;;;;;;;13.60;10.20;;;;;2.33;63.35;100806.28;5065205;28;9627;-76
2022/01/18 06:45:47;;;;;;;;;18.40;13.80;;;;;2.48;62.54;100798.47;5067617;28;8859;-76
2022/01/18 06:48:15;;;;;;;;;11.40;9.80;;;;;1.60;64.01;100795.44;5063549;28;8898;-75
2022/01/18 06:50:44;;;;;;;;;10.60;9.40;;;;;1.06;66.07;100811.28;5031215;28;8840;-75
2022/01/18 06:53:15;;;;;;;;;8.40;8.40;;;;;1.10;66.39;100817.50;4994865;28;8850;-75
2022/01/18 06:55:44;;;;;;;;;9.80;9.00;;;;;1.39;65.51;100819.16;5044513;28;9798;-75
2022/01/18 06:58:14;;;;;;;;;11.80;10.00;;;;;1.52;65.22;100819.03;5028125;28;8866;-78
2022/01/18 07:00:43;;;;;;;;;8.60;8.20;;;;;1.89;64.22;100818.53;5031255;28;8844;-74
2022/01/18 07:03:12;;;;;;;;;11.20;9.40;;;;;2.14;63.63;100825.88;5047654;28;8878;-76
2022/01/18 07:05:41;;;;;;;;;13.00;13.00;;;;;2.21;63.71;100818.47;5031047;28;9328;-78
2022/01/18 07:08:16;;;;;;;;;13.40;11.00;;;;;2.30;63.73;100825.00;5027433;28;8957;-76
2022/01/18 07:10:45;;;;;;;;;16.75;15.00;;;;;2.47;63.06;100827.59;5011248;28;8865;-75
2022/01/18 07:13:14;;;;;;;;;16.60;10.20;;;;;2.64;62.62;100825.91;5027640;28;9572;-75
2022/01/18 07:15:43;;;;;;;;;12.20;11.60;;;;;2.67;62.38;100837.25;5047146;28;8947;-74
2022/01/18 07:18:12;;;;;;;;;14.00;10.00;;;;;2.70;62.27;100832.28;5031597;28;8842;-75
2022/01/18 07:20:41;;;;;;;;;9.80;8.80;;;;;2.84;61.31;100834.66;5031398;28;8939;-75
2022/01/18 07:23:12;;;;;;;;;7.80;5.40;;;;;2.23;61.84;100833.22;5046655;28;8961;-75
2022/01/18 07:25:45;;;;;;;;;7.00;7.00;;;;;2.14;62.65;100835.28;5055907;28;8878;-77
2022/01/18 07:28:17;;;;;;;;;15.40;10.40;;;;;2.13;63.18;100828.38;5051474;28;8867;-75
2022/01/18 07:30:47;;;;;;;;;9.80;7.60;;;;;2.01;63.31;100832.84;5052631;28;8871;-77
2022/01/18 07:33:17;;;;;;;;;0.80;0.80;;;;;1.82;63.45;100836.09;5068893;28;8836;-75
2022/01/18 07:35:46;;;;;;;;;11.80;8.20;;;;;1.58;64.28;100836.50;5069026;28;9641;-74
2022/01/18 07:38:17;;;;;;;;;8.60;7.60;;;;;1.30;65.40;100841.75;5069050;28;8843;-75
2022/01/18 07:40:53;;;;;;;;;10.60;8.80;;;;;1.06;66.62;100856.59;5052133;28;8850;-76
2022/01/18 07:43:22;;;;;;;;;10.00;8.80;;;;;0.88;67.23;100859.00;5017567;28;8958;-74
2022/01/18 07:45:52;;;;;;;;;7.80;6.60;;;;;0.91;66.92;100865.19;5067079;28;8843;-75
2022/01/18 07:48:23;;;;;;;;;7.40;6.40;;;;;0.90;66.92;100865.09;5082331;28;8828;-75
2022/01/18 07:50:53;;;;;;;;;6.00;6.00;;;;;0.89;67.09;100856.53;5051561;28;8852;-75
2022/01/18 07:53:22;;;;;;;;;9.20;7.20;;;;;1.04;66.46;100860.78;5051207;28;9696;-75
2022/01/18 07:55:53;;;;;;;;;9.60;8.60;;;;;1.14;66.24;100861.41;5063936;28;8890;-75
2022/01/18 07:58:22;;;;;;;;;7.20;7.20;;;;;1.47;65.54;100860.69;5059325;28;8840;-76
2022/01/18 08:00:51;;;;;;;;;6.20;6.20;;;;;1.74;64.41;100849.41;5051367;28;8956;-76
2022/01/18 08:03:19;;;;;;;;;9.60;9.60;;;;;2.22;63.56;100854.59;5085357;28;8847;-76
2022/01/18 08:05:51;;;;;;;;;9.00;7.00;;;;;2.43;62.08;100846.25;5053216;28;8866;-76
2022/01/18 08:08:20;;;;;;;;;10.80;8.20;;;;;2.70;61.60;100855.44;5064540;28;8852;-77
2022/01/18 08:10:48;;;;;;;;;12.20;10.80;;;;;2.59;61.48;100854.00;5047806;28;8878;-77
2022/01/18 08:13:23;;;;;;;;;8.00;8.00;;;;;2.85;60.31;100862.19;5047723;28;8863;-77
2022/01/18 08:15:58;;;;;;;;;5.60;5.40;;;;;2.76;60.78;100860.03;5053262;28;8859;-74
2022/01/18 08:18:27;;;;;;;;;1.80;0.80;;;;;2.17;62.48;100865.44;5061361;28;8865;-77
2022/01/18 08:20:56;;;;;;;;;14.40;10.00;;;;;2.25;61.97;100859.91;5050495;28;8863;-77
2022/01/18 08:23:25;;;;;;;;;7.20;7.00;;;;;2.29;61.91;100868.69;5047357;28;8843;-76
2022/01/18 08:25:53;;;;;;;;;9.40;7.60;;;;;2.21;62.55;100868.28;5065122;28;8851;-72
2022/01/18 08:28:23;;;;;;;;;9.60;7.20;;;;;2.68;60.74;100874.19;5033870;28;8890;-73
2022/01/18 08:30:52;;;;;;;;;8.00;7.80;;;;;2.54;60.64;100876.91;5068749;28;8902;-74
2022/01/18 08:33:23;;;;;;;;;9.60;9.60;;;;;2.20;60.96;100888.78;5069144;28;8867;-73
2022/01/18 08:35:51;;;;;;;;;8.80;5.40;;;;;2.33;61.76;100888.66;5059872;28;8889;-73
2022/01/18 08:38:22;;;;;;;;;8.00;5.60;;;;;2.75;60.43;100893.44;5023842;28;8848;-74
2022/01/18 08:40:50;;;;;;;;;10.00;10.00;;;;;2.42;60.79;100904.59;5068438;28;8839;-73
2022/01/18 08:43:19;;;;;;;;;10.20;8.00;;;;;2.52;60.64;100905.97;5067592;28;8848;-71
2022/01/18 08:45:49;;;;;;;;;8.00;8.00;;;;;2.56;60.46;100904.44;5049951;28;8875;-73
2022/01/18 08:48:18;;;;;;;;;5.00;5.00;;;;;2.09;60.67;100914.78;5077413;28;8856;-73
2022/01/18 08:50:46;;;;;;;;;6.00;5.20;;;;;1.62;62.56;100922.41;5017382;28;8884;-76
2022/01/18 08:53:15;;;;;;;;;5.00;5.00;;;;;1.65;62.97;100917.44;5061029;28;8873;-72
2022/01/18 08:55:44;;;;;;;;;5.40;5.40;;;;;1.76;63.25;100918.94;5046773;28;9670;-74
2022/01/18 08:58:13;;;;;;;;;7.20;7.20;;;;;1.86;63.00;100931.50;5058644;28;8847;-74
2022/01/18 09:00:42;;;;;;;;;7.40;7.40;;;;;1.90;63.11;100946.31;5027035;28;8992;-73
2022/01/18 09:03:12;;;;;;;;;8.20;7.60;;;;;1.92;62.93;100942.13;4995740;28;8870;-74
2022/01/18 09:05:43;;;;;;;;;7.40;4.20;;;;;1.76;63.70;100949.81;5024948;28;8962;-75
2022/01/18 09:08:13;;;;;;;;;6.80;4.20;;;;;1.71;64.06;100956.34;4961857;28;8893;-72
2022/01/18 09:10:44;;;;;;;;;7.00;5.00;;;;;1.54;64.33;100947.66;4944437;28;8870;-73
2022/01/18 09:13:12;;;;;;;;;7.00;4.80;;;;;1.59;64.51;100953.97;4992850;28;9052;-73
2022/01/18 09:15:41;;;;;;;;;7.80;4.80;;;;;1.55;64.80;100957.13;4992488;28;8877;-72
2022/01/18 09:18:11;;;;;;;;;10.80;6.60;;;;;1.50;65.77;100963.72;4959819;28;8877;-73
2022/01/18 09:20:40;;;;;;;;;9.80;7.80;;;;;1.36;65.28;100962.88;5008439;28;8876;-75
2022/01/18 09:23:09;;;;;;;;;8.80;8.80;;;;;1.40;65.37;100962.28;5008307;28;8858;-74
2022/01/18 09:25:38;;;;;;;;;4.20;3.60;;;;;1.54;65.50;100956.25;5008580;28;8874;-72
2022/01/18 09:28:07;;;;;;;;;7.80;6.60;;;;;1.53;65.03;100949.34;4960268;28;8878;-73
2022/01/18 09:30:37;;;;;;;;;0.00;0.00;;;;;1.60;65.25;100950.56;5024352;28;8839;-72
2022/01/18 09:33:07;;;;;;;;;10.80;5.80;;;;;1.80;64.93;100944.03;5042706;28;9571;-72
2022/01/18 09:35:38;;;;;;;;;6.60;4.80;;;;;1.66;63.83;100955.19;5039455;28;8864;-73
2022/01/18 09:38:08;;;;;;;;;12.00;8.60;;;;;1.74;63.98;100935.97;5063017;28;8976;-73
2022/01/18 09:40:38;;;;;;;;;2.40;1.80;;;;;1.62;63.92;100938.69;5066038;28;8867;-72
2022/01/18 09:43:13;;;;;;;;;12.20;9.80;;;;;1.75;63.73;100943.75;5035663;28;8945;-74
2022/01/18 09:45:44;;;;;;;;;10.00;10.00;;;;;1.88;63.77;100934.19;5060148;28;9678;-73
2022/01/18 09:48:14;;;;;;;;;6.80;6.80;;;;;2.05;63.54;100946.28;5059206;28;8875;-73
2022/01/18 09:50:47;;;;;;;;;10.00;7.20;;;;;2.09;63.14;100953.38;5065759;28;8879;-76
2022/01/18 09:53:16;;;;;;;;;10.00;9.20;;;;;2.08;62.65;100945.56;5049541;28;9602;-74
2022/01/18 09:55:48;;;;;;;;;4.00;4.00;;;;;1.70;62.13;100940.06;5065752;28;9729;-73
2022/01/18 09:58:17;;;;;;;;;6.20;5.20;;;;;1.69;62.59;100950.25;4991257;28;8846;-76
2022/01/18 10:00:46;;;;;;;;;13.80;10.80;;;;;1.83;62.82;100926.19;5022296;28;9598;-75
2022/01/18 10:03:31;;;;;;;;;13.20;7.00;;;;;1.89;62.41;100934.28;5044861;28;8872;-75
2022/01/18 10:06:03;;;;;;;;;9.00;8.00;;;;;1.89;61.94;100934.28;5043769;28;8874;-75
2022/01/18 10:08:36;;;;;;;;;6.60;6.60;;;;;1.82;61.54;100934.72;5027986;28;8863;-75
2022/01/18 10:11:10;;;;;;;;;8.80;8.80;;;;;1.80;61.93;100953.44;5044845;28;8870;-73
2022/01/18 10:13:39;;;;;;;;;7.00;7.00;;;;;1.90;62.40;100936.03;5010989;28;9419;-75
2022/01/18 10:16:11;;;;;;;;;13.00;10.80;;;;;2.02;62.05;100940.09;5041194;28;9024;-73
2022/01/18 10:18:47;;;;;;;;;9.80;9.80;;;;;1.98;62.36;100920.13;5027504;28;9617;-73
2022/01/18 10:21:28;;;;;;;;;10.00;8.20;;;;;2.03;61.54;100924.75;5004016;28;8949;-73
2022/01/18 10:24:12;;;;;;;;;9.80;7.80;;;;;1.97;61.02;100928.66;4993369;28;9022;-73
2022/01/18 10:26:42;;;;;;;;;7.60;7.60;;;;;1.93;61.00;100925.03;4954082;28;8896;-74
2022/01/18 10:29:13;;;;;;;;;10.20;10.20;;;;;1.88;59.96;100926.47;5012425;28;8857;-74
2022/01/18 10:31:54;;;;;;;;;8.80;6.60;;;;;1.68;59.60;100951.94;4962494;28;8859;-75
2022/01/18 10:34:41;;;;;;;;;6.00;4.00;;;;;1.63;60.29;100926.75;5027988;28;10177;-73
2022/01/18 10:37:13;;;;;;;;;6.80;4.00;;;;;1.80;60.41;100928.59;5028079;28;8867;-73
2022/01/18 10:39:43;;;;;;;;;6.80;4.60;;;;;1.89;59.98;100928.22;5027446;28;8839;-73
2022/01/18 10:42:18;;;;;;;;;9.80;6.00;;;;;1.92;60.10;100929.28;5010565;28;8852;-74
2022/01/18 10:44:48;;;;;;;;;11.20;9.20;;;;;1.97;59.98;100928.66;5026789;28;8871;-72
2022/01/18 10:47:18;;;;;;;;;8.60;7.80;;;;;2.04;60.02;100939.41;5026599;28;8966;-74
2022/01/18 10:49:48;;;;;;;;;13.20;9.80;;;;;2.06;60.14;100955.81;4985811;28;9580;-74
2022/01/18 10:52:21;;;;;;;;;10.40;8.00;;;;;2.17;60.23;100953.81;4936105;28;9006;-72
2022/01/18 10:54:51;;;;;;;;;7.00;5.20;;;;;2.09;60.10;100949.94;4970162;28;8892;-75
2022/01/18 10:57:22;;;;;;;;;4.20;4.20;;;;;2.23;59.79;100951.59;4957891;28;8868;-74
2022/01/18 10:59:56;;;;;;;;;7.40;6.20;;;;;2.19;59.70;100959.03;5004433;28;8993;-74
2022/01/18 11:02:25;;;;;;;;;9.20;7.20;;;;;2.27;59.68;100968.97;5009738;28;8942;-73
2022/01/18 11:04:56;;;;;;;;;8.20;4.80;;;;;2.10;59.80;100954.28;4960922;28;8877;-73
2022/01/18 11:07:27;;;;;;;;;8.00;8.00;;;;;2.15;60.42;100950.25;4992167;28;8858;-73
2022/01/18 11:10:05;;;;;;;;;7.40;5.40;;;;;2.20;60.95;100959.13;4992644;28;8869;-73
2022/01/18 11:12:44;;;;;;;;;13.20;11.20;;;;;2.28;60.59;100949.28;5008869;28;8956;-73
2022/01/18 11:15:19;;;;;;;;;8.40;8.00;;;;;2.19;60.39;100959.94;5009411;28;9609;-73
2022/01/18 11:17:56;;;;;;;;;7.60;7.00;;;;;2.31;59.93;100960.63;5009889;28;8890;-73
2022/01/18 11:20:29;;;;;;;;;11.20;9.00;;;;;2.24;60.13;100955.06;5006106;28;8844;-75
2022/01/18 11:22:59;;;;;;;;;13.80;10.00;;;;;2.41;59.67;100956.88;5045544;28;8952;-75
2022/01/18 11:25:29;;;;;;;;;7.40;6.80;;;;;2.44;58.71;100964.78;5014368;28;9718;-73
2022/01/18 11:27:58;;;;;;;;;10.20;7.00;;;;;2.39;58.75;100979.06;5030144;28;8887;-75
2022/01/18 11:30:34;;;;;;;;;9.40;8.20;;;;;2.54;59.02;100963.56;4998112;28;8848;-76
2022/01/18 11:33:09;;;;;;;;;10.40;8.60;;;;;2.50;58.32;100979.66;5063300;28;8848;-74
2022/01/18 11:35:46;;;;;;;;;7.20;5.00;;;;;2.25;58.48;100985.13;5046480;28;9562;-73
2022/01/18 11:38:23;;;;;;;;;11.00;6.40;;;;;2.26;58.46;100994.63;5030541;28;9554;-74
2022/01/18 11:40:54;;;;;;;;;6.60;6.60;;;;;2.43;58.18;100968.13;5030457;28;8860;-75
2022/01/18 11:43:38;;;;;;;;;10.00;6.60;;;;;2.30;58.53;100971.69;5046404;28;8840;-72
2022/01/18 11:46:22;;;;;;;;;4.40;3.60;;;;;2.28;57.83;100957.88;5030047;28;8929;-74
2022/01/18 11:49:00;;;;;;;;;7.80;7.80;;;;;2.34;58.11;100965.97;5046271;28;9692;-75
2022/01/18 11:51:48;;;;;;;;;9.80;8.20;;;;;2.43;58.58;100964.69;5030280;28;8886;-76
2022/01/18 11:54:31;;;;;;;;;10.60;6.60;;;;;2.48;59.10;100960.69;5042355;28;8847;-75
2022/01/18 11:57:00;;;;;;;;;5.80;5.80;;;;;2.53;58.43;100961.78;5030218;28;9600;-76
2022/01/18 11:59:37;;;;;;;;;7.00;7.00;;;;;2.58;58.12;100964.63;5013513;28;8884;-77
2022/01/18 12:02:05;;;;;;;;;4.20;2.00;;;;;2.60;57.81;100968.19;5017769;28;8869;-74
2022/01/18 12:05:13;;;;;;;;;7.20;6.60;;;;;2.42;58.06;100950.03;5046460;28;8889;-77
2022/01/18 12:07:52;;;;;;;;;7.00;5.20;;;;;2.36;58.67;100953.13;5012865;28;8963;-74
2022/01/18 12:10:48;;;;;;;;;6.40;4.80;;;;;2.28;59.60;100955.28;5045374;28;8940;-76
2022/01/18 12:13:34;;;;;;;;;10.00;8.20;;;;;2.37;60.17;100961.78;5029202;28;8850;-74
2022/01/18 12:16:10;;;;;;;;;7.60;5.80;;;;;2.24;60.05;100958.50;5038734;28;8933;-74
2022/01/18 12:18:54;;;;;;;;;11.80;8.80;;;;;2.36;60.07;100948.00;5045610;28;8913;-74
2022/01/18 12:21:27;;;;;;;;;11.00;9.60;;;;;2.29;59.32;100953.63;5045656;28;8886;-73
2022/01/18 12:23:57;;;;;;;;;2.60;1.80;;;;;2.30;59.34;100970.81;5028604;28;8985;-75
2022/01/18 12:26:37;;;;;;;;;5.40;5.40;;;;;2.20;60.18;100969.44;5010193;28;8896;-76
2022/01/18 12:32:39;;;;;;;;;10.80;9.80;;;;;2.75;59.50;100970.69;5026938;28;8917;-73
2022/01/18 12:35:22;;;;;;;;;10.40;8.80;;;;;2.54;59.68;100972.19;5068720;28;8899;-74
2022/01/18 12:37:51;;;;;;;;;10.00;8.00;;;;;2.46;60.05;100975.16;5048437;28;8964;-73
2022/01/18 12:40:33;;;;;;;;;5.40;5.40;;;;;2.40;59.97;100965.41;5054479;28;8890;-75
2022/01/18 12:45:55;;;;;;;;;10.40;8.00;;;;;2.49;60.48;100968.47;5057253;28;9653;-74
2022/01/18 12:48:24;;;;;;;;;11.60;8.40;;;;;2.43;60.32;100970.69;5046883;28;8857;-73
2022/01/18 12:50:58;;;;;;;;;8.00;5.40;;;;;2.26;61.18;100974.03;5048393;28;8842;-76
2022/01/18 12:53:30;;;;;;;;;12.20;12.20;;;;;2.40;61.01;100975.69;5049374;28;8828;-73